Time;durP1;ratioP1;P1;durP2;ratioP2;P2;SDS_P1;SDS_P2;PMS_P1;PMS_P2;Temp;Humidity;BMP_temperature;BMP_pressure;BME280_temperature;BME280_humidity;BME280_pressure;Samples;Min_cycle;Max_cycle;Signal;HPM_P1;HPM_P2
2022/01/26 00:06:38;;;;;;;0.20;0.20;;;0.30;99.90;;;;;;5075512;28;20029;-64
2022/01/26 00:09:06;;;;;;;0.77;0.77;;;0.30;99.90;;;;;;5073989;28;20029;-66
2022/01/26 00:11:34;;;;;;;0.68;0.68;;;0.30;99.90;;;;;;5075106;28;20044;-66
2022/01/26 00:14:02;;;;;;;1.40;1.35;;;0.30;99.90;;;;;;5075177;28;20082;-66
2022/01/26 00:16:41;;;;;;;0.15;0.15;;;0.20;99.90;;;;;;5074968;28;20064;-66
2022/01/26 00:19:15;;;;;;;0.28;0.28;;;0.30;99.90;;;;;;5075042;28;20503;-65
2022/01/26 00:21:47;;;;;;;0.20;0.20;;;0.30;99.90;;;;;;5074174;28;20528;-64
2022/01/26 00:29:23;;;;;;;2.38;2.28;;;0.30;99.90;;;;;;5073526;28;20036;-65
2022/01/26 00:40:36;;;;;;;4.75;2.33;;;0.40;99.90;;;;;;5073890;28;20208;-65
2022/01/26 00:43:15;;;;;;;1.52;1.42;;;0.40;99.90;;;;;;5074781;28;20048;-66
2022/01/26 00:45:43;;;;;;;0.10;0.10;;;0.40;99.90;;;;;;5073293;28;20090;-66
2022/01/26 00:48:10;;;;;;;3.25;0.90;;;0.30;99.90;;;;;;5074766;28;20047;-66
2022/01/26 00:50:38;;;;;;;1.75;0.85;;;0.30;99.90;;;;;;5074557;28;20036;-65
2022/01/26 00:53:06;;;;;;;2.30;1.80;;;0.30;99.90;;;;;;5073248;28;20040;-65
2022/01/26 00:55:32;;;;;;;1.05;1.02;;;0.40;99.90;;;;;;5090168;28;20074;-66
2022/01/26 00:57:58;;;;;;;0.20;0.20;;;0.30;99.90;;;;;;5074615;28;20054;-66
2022/01/26 01:00:27;;;;;;;1.55;1.08;;;0.30;99.90;;;;;;5074070;28;20548;-66
2022/01/26 01:02:55;;;;;;;15.32;4.68;;;0.30;99.90;;;;;;5073011;28;20036;-66
2022/01/26 01:05:26;;;;;;;1.02;1.02;;;0.20;99.90;;;;;;5073515;28;20447;-65
2022/01/26 01:08:00;;;;;;;0.13;0.13;;;0.30;99.90;;;;;;5073118;28;20032;-66
2022/01/26 01:10:26;;;;;;;3.40;3.20;;;0.30;99.90;;;;;;5072959;28;20040;-66
2022/01/26 01:12:56;;;;;;;0.10;0.10;;;0.20;99.90;;;;;;5073038;28;20028;-65
2022/01/26 01:15:24;;;;;;;0.65;0.63;;;0.20;99.90;;;;;;5072860;28;20032;-65
2022/01/26 01:17:54;;;;;;;16.00;3.38;;;0.20;99.90;;;;;;5073783;28;20025;-66
2022/01/26 01:21:00;;;;;;;0.37;0.37;;;0.20;99.90;;;;;;5072466;28;20029;-65
2022/01/26 01:23:58;;;;;;;0.13;0.13;;;0.20;99.90;;;;;;5073614;28;20044;-66
2022/01/26 01:31:41;;;;;;;2.33;0.80;;;0.20;99.90;;;;;;5073222;28;20059;-65
2022/01/26 01:34:09;;;;;;;0.10;0.10;;;0.30;99.90;;;;;;5072442;28;20039;-66
2022/01/26 01:36:38;;;;;;;5.32;4.90;;;0.30;99.90;;;;;;5072269;28;20029;-65
2022/01/26 01:39:07;;;;;;;3.15;2.05;;;0.30;99.90;;;;;;5073527;28;20036;-65
2022/01/26 01:41:40;;;;;;;0.63;0.63;;;0.30;99.90;;;;;;5072116;28;20047;-66
2022/01/26 01:44:10;;;;;;;2.30;1.55;;;0.30;99.90;;;;;;5073208;28;20085;-66
2022/01/26 01:46:37;;;;;;;2.83;2.65;;;0.30;99.90;;;;;;5072317;28;20037;-65
2022/01/26 01:49:05;;;;;;;0.20;0.20;;;0.30;99.90;;;;;;5072564;28;20029;-66
2022/01/26 01:51:35;;;;;;;0.30;0.30;;;0.20;99.90;;;;;;5072203;28;20059;-65
2022/01/26 01:54:04;;;;;;;0.50;0.50;;;0.20;99.90;;;;;;5072054;28;20064;-65
2022/01/26 01:56:30;;;;;;;0.10;0.10;;;0.20;99.90;;;;;;5073217;28;20024;-64
2022/01/26 01:58:58;;;;;;;2.17;2.08;;;0.20;99.90;;;;;;5073217;28;20090;-65
2022/01/26 02:01:26;;;;;;;2.58;0.80;;;0.20;99.90;;;;;;5071583;28;20031;-65
2022/01/26 02:03:52;;;;;;;0.20;0.20;;;0.20;99.90;;;;;;5073383;28;20032;-65
2022/01/26 02:06:18;;;;;;;0.50;0.50;;;0.20;99.90;;;;;;5073128;28;20037;-65
2022/01/26 02:08:44;;;;;;;0.65;0.65;;;0.20;99.90;;;;;;5073185;28;20028;-65
2022/01/26 02:11:12;;;;;;;0.88;0.85;;;0.30;99.90;;;;;;5073162;28;20469;-65
2022/01/26 02:14:18;;;;;;;3.35;2.80;;;0.30;99.90;;;;;;5072817;28;20682;-65
2022/01/26 02:51:59;;;;;;;0.10;0.10;;;0.20;99.90;;;;;;5072031;28;20033;-65
2022/01/26 02:54:53;;;;;;;1.05;1.00;;;0.20;99.90;;;;;;5072268;28;20079;-65
2022/01/26 03:02:49;;;;;;;0.30;0.30;;;0.30;99.90;;;;;;5070805;28;20980;-65
2022/01/26 03:05:16;;;;;;;1.45;1.35;;;0.30;99.90;;;;;;5071924;28;20029;-65
2022/01/26 03:07:56;;;;;;;0.22;0.22;;;0.10;99.90;;;;;;5071656;28;20507;-64
2022/01/26 03:12:59;;;;;;;0.10;0.10;;;0.20;99.90;;;;;;5072061;28;20489;-65
2022/01/26 03:15:31;;;;;;;0.28;0.28;;;0.10;99.90;;;;;;5054488;28;20037;-66
2022/01/26 03:20:22;;;;;;;7.88;2.92;;;0.10;99.90;;;;;;5071765;28;20115;-66
2022/01/26 03:28:38;;;;;;;1.35;1.35;;;0.20;99.90;;;;;;5070434;28;20036;-66
2022/01/26 03:36:15;;;;;;;0.57;0.57;;;0.10;99.90;;;;;;5071557;28;20043;-66
2022/01/26 03:38:45;;;;;;;0.82;0.82;;;0.10;99.90;;;;;;5071439;28;20461;-64
2022/01/26 03:41:23;;;;;;;9.55;2.17;;;0.10;99.90;;;;;;5070306;28;20070;-65
2022/01/26 03:43:48;;;;;;;1.52;1.42;;;0.20;99.90;;;;;;5070262;28;20044;-66
2022/01/26 03:46:17;;;;;;;0.40;0.40;;;0.10;99.90;;;;;;5071738;28;20028;-66
2022/01/26 03:48:43;;;;;;;0.55;0.55;;;0.20;99.90;;;;;;5070193;28;20028;-66
2022/01/26 03:51:11;;;;;;;0.95;0.95;;;0.20;99.90;;;;;;5070275;28;20044;-67
2022/01/26 03:53:37;;;;;;;0.10;0.10;;;0.10;99.90;;;;;;5071825;28;20041;-66
2022/01/26 03:56:03;;;;;;;0.10;0.10;;;0.10;99.90;;;;;;5071635;28;20033;-66
2022/01/26 03:58:28;;;;;;;0.88;0.85;;;0.10;99.90;;;;;;5071478;28;20037;-66
2022/01/26 04:00:58;;;;;;;2.53;2.33;;;0.20;99.90;;;;;;5071679;28;20086;-66
2022/01/26 04:03:24;;;;;;;0.10;0.10;;;0.20;99.90;;;;;;5071407;28;20540;-66
2022/01/26 04:05:49;;;;;;;12.25;4.20;;;0.10;99.90;;;;;;5071307;28;20043;-66
2022/01/26 04:08:21;;;;;;;0.10;0.10;;;0.20;99.90;;;;;;5071511;28;20063;-66
2022/01/26 04:11:15;;;;;;;2.67;2.47;;;0.20;99.90;;;;;;5069990;28;20033;-66
2022/01/26 04:13:41;;;;;;;0.65;0.65;;;0.20;99.90;;;;;;5071058;28;20040;-65
2022/01/26 04:16:07;;;;;;;9.52;1.27;;;0.20;99.90;;;;;;5071169;28;20029;-65
2022/01/26 04:18:37;;;;;;;0.95;0.95;;;0.20;99.90;;;;;;5071125;28;20037;-66
2022/01/26 04:21:36;;;;;;;0.63;0.63;;;0.20;99.90;;;;;;5069754;28;20562;-66
2022/01/26 04:24:01;;;;;;;0.30;0.30;;;0.20;99.90;;;;;;5070640;28;20049;-65
2022/01/26 04:26:44;;;;;;;0.47;0.47;;;0.30;99.90;;;;;;5070985;28;20032;-65
2022/01/26 04:29:16;;;;;;;0.10;0.10;;;0.20;99.90;;;;;;5071094;28;20039;-65
2022/01/26 04:31:41;;;;;;;0.52;0.52;;;0.20;99.90;;;;;;5069761;28;20094;-65
2022/01/26 04:34:07;;;;;;;0.40;0.40;;;0.40;99.90;;;;;;5069931;28;20420;-66
2022/01/26 04:36:40;;;;;;;1.05;1.05;;;0.20;99.90;;;;;;5069465;28;20037;-65
2022/01/26 04:39:10;;;;;;;2.42;1.65;;;0.20;99.90;;;;;;5071168;28;20029;-65
2022/01/26 04:41:43;;;;;;;0.10;0.10;;;0.20;99.90;;;;;;5074095;28;20082;-66
2022/01/26 04:44:17;;;;;;;0.22;0.22;;;0.20;99.90;;;;;;5073432;28;20039;-66
2022/01/26 04:46:42;;;;;;;0.63;0.63;;;0.20;99.90;;;;;;5089917;28;20551;-66
2022/01/26 04:49:08;;;;;;;0.50;0.50;;;0.20;99.90;;;;;;5074751;28;20036;-65
2022/01/26 04:51:34;;;;;;;0.20;0.20;;;0.40;99.90;;;;;;5074491;28;20441;-66
2022/01/26 04:54:00;;;;;;;0.10;0.10;;;0.30;99.90;;;;;;5074231;28;20070;-66
2022/01/26 04:56:25;;;;;;;1.05;1.05;;;0.20;99.90;;;;;;5065805;28;20041;-66
2022/01/26 04:58:51;;;;;;;0.25;0.25;;;0.20;99.90;;;;;;5054518;28;20119;-66
2022/01/26 05:01:17;;;;;;;0.10;0.10;;;0.20;99.90;;;;;;5055946;28;20063;-64
2022/01/26 05:03:43;;;;;;;0.10;0.10;;;0.20;99.90;;;;;;5055135;28;20048;-66
2022/01/26 05:06:08;;;;;;;1.48;0.85;;;0.30;99.90;;;;;;5058746;28;20062;-66
2022/01/26 05:08:36;;;;;;;1.08;1.02;;;0.20;99.90;;;;;;5074014;28;20032;-66
2022/01/26 05:11:03;;;;;;;0.80;0.80;;;0.30;99.90;;;;;;5072881;28;20033;-65
2022/01/26 05:13:28;;;;;;;1.48;1.40;;;0.30;99.90;;;;;;5067855;28;20060;-65
2022/01/26 05:15:54;;;;;;;0.20;0.20;;;0.30;99.90;;;;;;5054447;28;20398;-65
2022/01/26 05:18:20;;;;;;;0.10;0.10;;;0.30;99.90;;;;;;5063879;28;20519;-64
2022/01/26 05:20:46;;;;;;;14.15;1.95;;;0.30;99.90;;;;;;5059152;28;20021;-65
2022/01/26 05:23:12;;;;;;;0.45;0.45;;;0.50;99.90;;;;;;5056268;28;20124;-64
2022/01/26 05:25:38;;;;;;;0.30;0.30;;;0.60;99.90;;;;;;5062992;28;20085;-65
2022/01/26 05:28:04;;;;;;;0.57;0.55;;;0.70;99.90;;;;;;5070388;28;20028;-64
2022/01/26 05:30:30;;;;;;;0.30;0.30;;;0.70;99.90;;;;;;5060789;28;20102;-65
2022/01/26 05:32:56;;;;;;;0.20;0.20;;;0.60;99.90;;;;;;5053898;28;20639;-65
2022/01/26 05:35:21;;;;;;;3.15;2.92;;;0.60;99.90;;;;;;5051467;28;20057;-65
2022/01/26 05:37:47;;;;;;;0.28;0.28;;;0.60;99.90;;;;;;5052463;28;20115;-63
2022/01/26 05:40:13;;;;;;;0.20;0.20;;;0.50;99.90;;;;;;5052273;28;20033;-64
2022/01/26 05:42:41;;;;;;;0.65;0.65;;;0.50;99.90;;;;;;5052074;28;20029;-65
2022/01/26 05:45:17;;;;;;;0.47;0.47;;;0.70;99.90;;;;;;5052500;28;20025;-65
2022/01/26 05:47:43;;;;;;;0.10;0.10;;;0.70;99.90;;;;;;5050873;28;20129;-65
2022/01/26 05:50:09;;;;;;;0.30;0.30;;;0.60;99.90;;;;;;5052120;28;20040;-64
2022/01/26 05:52:35;;;;;;;2.63;1.35;;;0.50;99.90;;;;;;5049850;28;20032;-64
2022/01/26 05:55:00;;;;;;;0.63;0.63;;;0.50;99.90;;;;;;5052231;28;20466;-65
2022/01/26 05:57:26;;;;;;;0.10;0.10;;;0.50;99.90;;;;;;5052008;28;20064;-66
2022/01/26 05:59:54;;;;;;;0.20;0.20;;;0.50;99.90;;;;;;5052175;28;20112;-66
2022/01/26 06:02:20;;;;;;;0.10;0.10;;;0.50;99.90;;;;;;5051153;28;20025;-66
2022/01/26 06:04:45;;;;;;;2.15;2.00;;;0.50;99.90;;;;;;5050542;28;20554;-65
2022/01/26 06:07:11;;;;;;;0.65;0.65;;;0.60;99.90;;;;;;5051811;28;20029;-65
2022/01/26 06:09:37;;;;;;;0.10;0.10;;;0.60;99.90;;;;;;5051641;28;20043;-66
2022/01/26 06:12:03;;;;;;;0.40;0.40;;;0.60;99.90;;;;;;5050517;28;20037;-64
2022/01/26 06:14:29;;;;;;;0.57;0.57;;;0.60;99.90;;;;;;5051588;28;20060;-66
2022/01/26 06:16:55;;;;;;;0.20;0.20;;;0.60;99.90;;;;;;5051891;28;20072;-66
2022/01/26 06:19:21;;;;;;;0.95;0.95;;;0.60;99.90;;;;;;5052056;28;20111;-65
2022/01/26 06:21:46;;;;;;;0.10;0.10;;;0.70;99.90;;;;;;5051735;28;20041;-65
2022/01/26 06:24:12;;;;;;;0.10;0.10;;;0.70;99.90;;;;;;5051504;28;20489;-64
2022/01/26 06:26:40;;;;;;;1.85;1.75;;;0.80;99.90;;;;;;5051597;28;20695;-65
2022/01/26 06:29:06;;;;;;;0.15;0.15;;;0.70;99.90;;;;;;5051702;28;20040;-65
2022/01/26 06:31:34;;;;;;;0.55;0.55;;;0.70;99.90;;;;;;5001524;28;1426713;-64
2022/01/26 06:34:02;;;;;;;1.30;1.23;;;0.70;99.90;;;;;;5051176;28;20036;-65
2022/01/26 06:36:28;;;;;;;0.82;0.82;;;0.70;99.90;;;;;;5051088;28;20051;-65
2022/01/26 06:38:57;;;;;;;0.47;0.47;;;0.80;99.90;;;;;;5051038;28;20155;-65
2022/01/26 06:41:25;;;;;;;0.28;0.28;;;0.70;99.90;;;;;;5051273;28;20090;-65
2022/01/26 06:44:04;;;;;;;0.47;0.47;;;0.70;99.90;;;;;;5051869;28;20025;-65
2022/01/26 06:47:18;;;;;;;0.10;0.10;;;0.70;99.90;;;;;;5052382;28;20472;-65
2022/01/26 06:51:49;;;;;;;0.22;0.22;;;0.80;99.90;;;;;;5050959;28;20314;-66
2022/01/26 06:54:14;;;;;;;0.30;0.30;;;0.80;99.90;;;;;;5063694;28;20423;-66
2022/01/26 06:56:40;;;;;;;0.10;0.10;;;0.70;99.90;;;;;;5071862;28;20488;-65
2022/01/26 06:59:06;;;;;;;0.10;0.10;;;0.60;99.90;;;;;;5071973;28;20063;-65
2022/01/26 07:01:32;;;;;;;0.30;0.30;;;0.70;99.90;;;;;;5071802;28;20085;-66
2022/01/26 07:03:57;;;;;;;0.10;0.10;;;0.80;99.90;;;;;;5071324;28;20025;-64
2022/01/26 07:06:23;;;;;;;0.35;0.35;;;0.80;99.90;;;;;;5071415;28;20553;-64
2022/01/26 07:08:49;;;;;;;0.32;0.32;;;0.80;99.90;;;;;;5070342;28;20094;-63
2022/01/26 07:11:15;;;;;;;0.20;0.20;;;0.60;99.90;;;;;;5071794;28;20423;-63
2022/01/26 07:13:41;;;;;;;0.65;0.65;;;0.70;99.90;;;;;;5071291;28;20060;-64
2022/01/26 07:19:55;;;;;;;0.10;0.10;;;0.70;99.90;;;;;;5070395;28;20071;-65
2022/01/26 07:21:47;;;;;;;0.10;0.10;;;0.80;99.90;;;;;;5065996;28;20051;-65
2022/01/26 07:24:13;;;;;;;0.65;0.65;;;0.70;99.90;;;;;;5071474;28;20029;-65
2022/01/26 07:26:38;;;;;;;0.98;0.88;;;0.70;99.90;;;;;;5070924;28;20037;-65
2022/01/26 07:29:11;;;;;;;0.10;0.10;;;0.70;99.90;;;;;;5071901;28;20047;-65
2022/01/26 07:31:47;;;;;;;0.10;0.10;;;0.70;99.90;;;;;;5069979;28;20457;-65
2022/01/26 07:34:14;;;;;;;0.10;0.10;;;0.60;99.90;;;;;;5071748;28;20033;-65
2022/01/26 07:36:46;;;;;;;0.10;0.10;;;0.70;99.90;;;;;;5071089;28;20465;-65
2022/01/26 07:39:16;;;;;;;0.10;0.10;;;0.70;99.90;;;;;;5071515;28;20510;-65
2022/01/26 07:41:42;;;;;;;1.08;1.08;;;0.80;99.90;;;;;;5070602;28;20040;-65
2022/01/26 07:44:07;;;;;;;0.57;0.57;;;0.80;99.90;;;;;;5071552;28;20056;-66
2022/01/26 07:46:33;;;;;;;0.55;0.55;;;0.80;99.90;;;;;;5071449;28;20135;-65
2022/01/26 07:49:00;;;;;;;0.10;0.10;;;0.80;99.90;;;;;;5071420;28;20040;-65
2022/01/26 07:51:26;;;;;;;0.10;0.10;;;0.80;99.90;;;;;;5070478;28;20056;-65
2022/01/26 07:53:52;;;;;;;0.10;0.10;;;0.90;99.90;;;;;;5069697;28;20454;-65
2022/01/26 07:56:18;;;;;;;0.40;0.40;;;1.00;99.90;;;;;;5071423;28;20111;-65
2022/01/26 07:58:45;;;;;;;0.20;0.20;;;1.10;99.90;;;;;;5069710;28;20036;-64
2022/01/26 08:01:11;;;;;;;4.75;4.28;;;1.10;99.90;;;;;;5071297;28;20043;-64
2022/01/26 08:03:37;;;;;;;0.10;0.10;;;1.10;99.90;;;;;;5071199;28;20462;-64
2022/01/26 08:06:07;;;;;;;0.73;0.73;;;1.00;99.90;;;;;;5053123;28;20072;-64
2022/01/26 08:08:33;;;;;;;2.92;2.72;;;1.00;99.90;;;;;;5070699;28;20078;-63
2022/01/26 08:11:00;;;;;;;0.10;0.10;;;1.00;99.90;;;;;;5071314;28;20093;-63
2022/01/26 08:13:26;;;;;;;2.83;1.95;;;1.00;99.90;;;;;;5071024;28;20029;-63
2022/01/26 08:15:57;;;;;;;0.10;0.10;;;1.00;99.90;;;;;;5071762;28;20197;-64
2022/01/26 08:18:24;;;;;;;0.20;0.20;;;1.00;99.90;;;;;;5073845;28;20036;-63
2022/01/26 08:20:54;;;;;;;0.10;0.10;;;1.00;99.90;;;;;;5074889;28;20036;-63
2022/01/26 08:23:22;;;;;;;0.10;0.10;;;1.00;99.90;;;;;;5073716;28;20142;-62
2022/01/26 08:25:50;;;;;;;4.28;0.68;;;1.10;99.90;;;;;;5074446;28;20470;-67
2022/01/26 08:28:25;;;;;;;0.13;0.13;;;1.10;99.90;;;;;;5073898;28;20083;-63
2022/01/26 08:30:51;;;;;;;0.10;0.10;;;0.90;99.90;;;;;;5073328;28;20028;-64
2022/01/26 08:33:23;;;;;;;0.10;0.10;;;0.90;99.90;;;;;;5074358;28;20052;-63
2022/01/26 08:35:48;;;;;;;;;;;0.90;99.90;;;;;;5074615;28;20102;-63
2022/01/26 08:38:20;;;;;;;0.10;0.10;;;0.70;99.90;;;;;;5074690;28;19916;-63
2022/01/26 08:40:47;;;;;;;0.03;0.03;;;0.70;99.90;;;;;;5074474;28;20142;-64
2022/01/26 08:43:15;;;;;;;4.65;1.35;;;0.80;99.90;;;;;;5073211;28;20036;-63
2022/01/26 08:45:42;;;;;;;0.47;0.47;;;0.80;99.90;;;;;;5073212;28;20033;-63
2022/01/26 08:48:08;;;;;;;0.10;0.10;;;0.70;99.90;;;;;;5072966;28;20048;-64
2022/01/26 08:50:35;;;;;;;0.85;0.85;;;0.80;99.90;;;;;;5073139;28;20032;-63
2022/01/26 08:53:01;;;;;;;0.73;0.73;;;0.70;99.90;;;;;;5073072;28;20040;-63
2022/01/26 08:55:27;;;;;;;1.30;1.13;;;0.50;99.90;;;;;;5072851;28;20059;-64
2022/01/26 08:57:53;;;;;;;2.83;1.33;;;0.40;99.90;;;;;;5072443;28;20430;-67
2022/01/26 09:00:19;;;;;;;0.10;0.10;;;0.50;99.90;;;;;;5074128;28;20062;-64
2022/01/26 09:02:46;;;;;;;0.20;0.20;;;0.50;99.90;;;;;;5063143;28;20374;-63
2022/01/26 09:05:13;;;;;;;1.65;1.55;;;0.50;99.90;;;;;;5054235;28;20037;-63
2022/01/26 09:07:44;;;;;;;0.10;0.10;;;0.50;99.90;;;;;;5053734;28;20550;-63
2022/01/26 09:10:10;;;;;;;0.10;0.10;;;0.60;99.90;;;;;;5053994;28;20465;-63
2022/01/26 09:12:40;;;;;;;0.20;0.20;;;0.60;99.90;;;;;;5053599;28;20409;-63
2022/01/26 09:15:07;;;;;;;0.10;0.10;;;0.60;99.90;;;;;;5054051;28;20031;-63
2022/01/26 09:17:35;;;;;;;0.20;0.20;;;0.50;99.90;;;;;;5052411;28;20541;-63
2022/01/26 09:20:03;;;;;;;0.10;0.10;;;0.40;99.90;;;;;;5052786;28;20051;-63
2022/01/26 09:22:29;;;;;;;0.10;0.10;;;0.50;99.90;;;;;;5053851;28;20032;-63
2022/01/26 09:24:55;;;;;;;0.10;0.10;;;0.60;99.90;;;;;;5053903;28;20434;-63
2022/01/26 09:27:21;;;;;;;1.05;1.00;;;0.50;99.90;;;;;;5053515;28;20029;-63
2022/01/26 09:29:47;;;;;;;0.20;0.20;;;0.50;99.90;;;;;;5053778;28;20033;-63
2022/01/26 09:32:14;;;;;;;0.85;0.85;;;0.50;99.90;;;;;;5053592;28;20041;-63
2022/01/26 09:34:42;;;;;;;0.10;0.10;;;0.60;99.90;;;;;;5053723;28;20025;-63
2022/01/26 09:37:14;;;;;;;0.55;0.55;;;0.50;99.90;;;;;;5035614;28;20116;-64
2022/01/26 09:39:42;;;;;;;0.10;0.10;;;0.40;99.90;;;;;;5053672;28;20039;-64
2022/01/26 09:42:09;;;;;;;3.20;1.15;;;0.30;99.90;;;;;;5035844;28;20028;-64
2022/01/26 09:44:36;;;;;;;0.10;0.10;;;0.30;99.90;;;;;;5053411;28;20490;-63
2022/01/26 09:47:04;;;;;;;18.15;1.75;;;0.40;99.90;;;;;;5052332;28;20029;-64
2022/01/26 09:49:33;;;;;;;5.07;1.02;;;0.40;99.90;;;;;;5052402;28;20211;-64
2022/01/26 09:52:17;;;;;;;0.10;0.10;;;0.30;99.90;;;;;;5068547;28;20036;-63
2022/01/26 09:54:43;;;;;;;0.30;0.25;;;0.30;99.90;;;;;;5053096;28;20064;-63
2022/01/26 09:57:09;;;;;;;0.10;0.10;;;0.40;99.90;;;;;;5052096;28;20041;-63
2022/01/26 09:59:37;;;;;;;0.20;0.20;;;0.40;99.90;;;;;;5051629;28;20033;-63
2022/01/26 10:02:04;;;;;;;0.20;0.20;;;0.50;99.90;;;;;;5051746;28;20104;-63
2022/01/26 10:04:38;;;;;;;0.30;0.30;;;0.50;99.90;;;;;;5053157;28;20033;-63
2022/01/26 10:07:46;;;;;;;0.20;0.20;;;0.40;99.90;;;;;;5053077;28;20044;-63
2022/01/26 10:15:51;;;;;;;1.50;0.68;;;0.50;99.90;;;;;;5052534;28;20385;-63
2022/01/26 10:18:21;;;;;;;0.80;0.80;;;0.60;99.90;;;;;;5051377;28;20029;-63
2022/01/26 10:20:58;;;;;;;0.10;0.10;;;0.70;99.90;;;;;;5051412;28;20400;-63
2022/01/26 10:23:29;;;;;;;0.10;0.10;;;0.50;99.90;;;;;;5052838;28;20029;-64
2022/01/26 10:26:15;;;;;;;0.10;0.10;;;0.60;99.90;;;;;;5035039;28;20029;-64
2022/01/26 10:28:50;;;;;;;0.10;0.10;;;0.60;99.90;;;;;;5052264;28;20033;-64
2022/01/26 10:31:21;;;;;;;1.23;1.17;;;0.40;99.90;;;;;;5052634;28;20087;-63
2022/01/26 10:33:57;;;;;;;0.30;0.30;;;0.40;99.90;;;;;;5052275;28;20064;-63
2022/01/26 10:36:44;;;;;;;1.05;1.05;;;0.60;99.90;;;;;;5052376;28;20075;-64
2022/01/26 10:39:22;;;;;;;0.10;0.10;;;0.70;99.90;;;;;;5050950;28;20374;-64
2022/01/26 10:41:51;;;;;;;0.10;0.10;;;0.70;99.90;;;;;;5067563;28;20393;-64
2022/01/26 10:44:18;;;;;;;0.20;0.20;;;0.50;99.90;;;;;;5050999;28;20025;-64
2022/01/26 10:46:44;;;;;;;1.13;1.13;;;0.70;99.90;;;;;;5050772;28;20029;-63
2022/01/26 10:54:39;;;;;;;0.20;0.20;;;0.90;99.90;;;;;;5052142;28;20052;-64
2022/01/26 10:57:11;;;;;;;0.17;0.17;;;1.00;99.90;;;;;;5069071;28;20365;-64
2022/01/26 10:59:41;;;;;;;0.43;0.43;;;1.00;99.90;;;;;;5072258;28;20027;-64
2022/01/26 11:02:12;;;;;;;0.10;0.10;;;1.00;99.90;;;;;;5072079;28;20032;-64
2022/01/26 11:04:41;;;;;;;0.50;0.47;;;1.10;99.90;;;;;;5070690;28;20094;-64
2022/01/26 11:07:11;;;;;;;0.38;0.38;;;1.00;99.90;;;;;;5071810;28;20052;-64
2022/01/26 11:09:40;;;;;;;0.35;0.35;;;1.00;99.90;;;;;;5070177;28;20024;-64
2022/01/26 11:12:11;;;;;;;1.05;1.05;;;1.20;99.90;;;;;;5050663;28;20040;-64
2022/01/26 11:14:46;;;;;;;0.15;0.15;;;1.10;99.90;;;;;;5049133;28;20367;-64
2022/01/26 11:17:36;;;;;;;0.10;0.10;;;1.10;99.90;;;;;;5051890;28;20124;-65
2022/01/26 11:20:29;;;;;;;1.00;1.00;;;1.10;99.90;;;;;;5051363;28;20041;-63
2022/01/26 11:22:58;;;;;;;0.10;0.10;;;1.10;99.90;;;;;;5051842;28;20055;-64
2022/01/26 11:25:27;;;;;;;0.90;0.88;;;1.20;99.90;;;;;;5050318;28;20033;-64
2022/01/26 11:27:55;;;;;;;0.88;0.85;;;1.10;99.90;;;;;;5051604;28;20047;-70
2022/01/26 11:30:28;;;;;;;1.70;1.58;;;1.20;99.90;;;;;;5051293;28;20031;-64
2022/01/26 11:33:11;;;;;;;1.02;0.98;;;1.10;99.90;;;;;;5051338;28;20049;-64
2022/01/26 11:35:41;;;;;;;11.82;5.05;;;1.10;99.90;;;;;;5051697;28;20029;-64
2022/01/26 11:47:30;;;;;;;1.90;1.33;;;1.00;99.90;;;;;;5051232;28;20033;-65
2022/01/26 11:50:26;;;;;;;0.22;0.22;;;1.00;99.90;;;;;;5051994;28;20032;-71
2022/01/26 11:53:24;;;;;;;0.10;0.10;;;1.20;99.90;;;;;;5053405;28;20037;-64
2022/01/26 11:55:53;;;;;;;0.10;0.10;;;1.10;99.90;;;;;;5055075;28;20116;-64
2022/01/26 11:58:39;;;;;;;0.80;0.65;;;1.20;99.90;;;;;;5070570;28;20053;-64
2022/01/26 12:01:22;;;;;;;0.38;0.38;;;1.10;99.90;;;;;;5054053;28;20482;-63
2022/01/26 12:04:10;;;;;;;0.10;0.10;;;1.20;99.90;;;;;;5054080;28;20041;-64
2022/01/26 12:06:43;;;;;;;0.10;0.10;;;1.20;99.90;;;;;;5038443;28;20029;-64
2022/01/26 12:09:12;;;;;;;0.57;0.57;;;1.30;99.90;;;;;;5055135;28;20182;-64
2022/01/26 12:11:38;;;;;;;0.10;0.10;;;1.30;99.90;;;;;;5055005;28;20331;-63
2022/01/26 12:14:12;;;;;;;0.68;0.63;;;1.40;99.90;;;;;;5055043;28;20037;-63
2022/01/26 12:16:45;;;;;;;0.10;0.10;;;1.30;99.90;;;;;;5054032;28;20139;-63
2022/01/26 12:34:02;;;;;;;0.47;0.47;;;1.20;99.90;;;;;;5053156;28;20060;-63
2022/01/26 12:42:26;;;;;;;0.10;0.10;;;1.00;99.90;;;;;;5054516;28;20483;-63
2022/01/26 12:45:05;;;;;;;0.28;0.28;;;1.00;99.90;;;;;;5053366;28;20044;-62
2022/01/26 12:47:32;;;;;;;0.13;0.13;;;1.10;99.90;;;;;;5052951;28;20066;-63
2022/01/26 12:50:04;;;;;;;0.10;0.10;;;1.10;99.90;;;;;;5053185;28;20036;-64
2022/01/26 12:52:30;;;;;;;1.65;1.55;;;1.10;99.90;;;;;;5037654;28;20036;-63
2022/01/26 12:54:56;;;;;;;0.13;0.13;;;1.10;99.90;;;;;;5053114;28;20485;-63
2022/01/26 12:57:22;;;;;;;0.10;0.10;;;1.20;99.90;;;;;;5052781;28;20504;-63
2022/01/26 12:59:59;;;;;;;0.20;0.20;;;1.30;99.90;;;;;;5052628;28;20036;-64
2022/01/26 13:02:28;;;;;;;0.20;0.20;;;1.10;99.90;;;;;;5072200;28;20032;-64
2022/01/26 13:05:03;;;;;;;0.15;0.15;;;1.10;99.90;;;;;;5070392;28;20031;-63
2022/01/26 13:07:29;;;;;;;2.38;1.13;;;1.10;99.90;;;;;;5054406;28;20393;-63
2022/01/26 13:09:56;;;;;;;0.68;0.68;;;1.10;99.90;;;;;;5052649;28;20103;-64
2022/01/26 13:12:29;;;;;;;2.75;1.55;;;1.20;99.90;;;;;;5054138;28;20057;-64
2022/01/26 13:15:14;;;;;;;0.10;0.10;;;1.30;99.90;;;;;;5052664;28;20036;-64
2022/01/26 13:18:12;;;;;;;0.10;0.10;;;1.30;99.90;;;;;;5037261;28;20060;-62
2022/01/26 13:21:13;;;;;;;0.10;0.10;;;1.30;99.90;;;;;;5053793;28;20056;-63
2022/01/26 13:23:42;;;;;;;;;;;1.30;99.90;;;;;;5053217;28;20049;-63
2022/01/26 13:29:26;;;;;;;0.70;0.70;;;1.40;99.90;;;;;;5053688;28;20026;-64
2022/01/26 13:37:06;;;;;;;0.10;0.10;;;1.30;99.90;;;;;;5052288;28;20036;-63
2022/01/26 13:47:41;;;;;;;0.10;0.10;;;1.20;99.90;;;;;;5052158;28;20044;-63
2022/01/26 13:50:57;;;;;;;0.40;0.40;;;1.20;99.90;;;;;;5068118;28;20468;-63
2022/01/26 13:53:17;;;;;;;0.10;0.10;;;1.10;99.90;;;;;;5034331;28;20037;-64
2022/01/26 14:01:00;;;;;;;0.10;0.10;;;1.20;99.90;;;;;;5052771;28;20071;-63
2022/01/26 14:03:29;;;;;;;1.52;1.42;;;1.30;99.90;;;;;;5051582;28;20052;-63
2022/01/26 14:05:56;;;;;;;0.15;0.15;;;1.30;99.90;;;;;;5051380;28;20028;-63
2022/01/26 14:08:25;;;;;;;0.57;0.57;;;1.30;99.90;;;;;;5053039;28;20033;-64
2022/01/26 14:10:51;;;;;;;0.10;0.10;;;1.30;99.90;;;;;;5052723;28;20057;-64
2022/01/26 14:13:22;;;;;;;0.30;0.30;;;1.40;99.90;;;;;;5033809;28;20068;-64
2022/01/26 14:15:51;;;;;;;0.90;0.90;;;1.30;99.90;;;;;;5067071;28;20551;-64
2022/01/26 14:22:06;;;;;;;0.10;0.10;;;1.40;99.90;;;;;;5052667;28;20104;-64
2022/01/26 14:26:22;;;;;;;0.10;0.10;;;1.50;99.90;;;;;;5052444;28;20592;-64
2022/01/26 14:28:47;;;;;;;0.57;0.57;;;1.40;99.90;;;;;;5035549;28;20402;-64
2022/01/26 14:31:54;;;;;;;0.13;0.13;;;1.40;99.90;;;;;;5052238;28;20051;-63
2022/01/26 14:40:06;;;;;;;0.10;0.10;;;1.30;99.90;;;;;;5051397;28;20029;-63
2022/01/26 14:51:02;;;;;;;0.50;0.50;;;1.40;99.90;;;;;;5052330;28;20036;-64
2022/01/26 14:56:00;;;;;;;1.00;1.00;;;1.40;99.90;;;;;;5052269;28;20029;-63
2022/01/26 15:08:43;;;;;;;0.20;0.20;;;1.40;99.90;;;;;;5058624;28;20039;-63
2022/01/26 15:42:43;;;;;;;0.10;0.10;;;1.60;99.90;;;;;;5071557;28;20097;-63
2022/01/26 15:50:51;;;;;;;0.68;0.68;;;1.50;99.90;;;;;;5071809;28;20028;-62
2022/01/26 15:57:16;;;;;;;0.22;0.22;;;1.70;99.90;;;;;;5071413;28;20393;-64
2022/01/26 16:04:27;;;;;;;0.10;0.10;;;1.80;99.90;;;;;;5070004;28;20043;-63
2022/01/26 16:07:10;;;;;;;0.10;0.10;;;1.90;99.90;;;;;;5071545;28;20532;-63
2022/01/26 16:19:12;;;;;;;0.30;0.30;;;1.70;99.90;;;;;;5071372;28;20119;-63
2022/01/26 17:13:03;;;;;;;0.10;0.10;;;1.50;99.90;;;;;;5074342;28;20032;-63
2022/01/26 18:04:47;;;;;;;1.45;1.15;;;1.50;99.90;;;;;;5073339;28;20141;-63
2022/01/26 18:17:58;;;;;;;0.20;0.20;;;1.50;99.90;;;;;;5072282;28;20028;-63
2022/01/26 18:40:14;;;;;;;0.30;0.30;;;1.40;99.90;;;;;;5071533;28;20032;-65
2022/01/26 18:50:41;;;;;;;2.15;1.95;;;1.50;99.90;;;;;;5071603;28;20036;-66
2022/01/26 18:53:07;;;;;;;6.53;1.08;;;1.50;99.90;;;;;;5072292;28;20574;-65
2022/01/26 18:55:33;;;;;;;0.30;0.30;;;1.50;99.90;;;;;;5072504;28;20024;-64
2022/01/26 18:57:59;;;;;;;1.15;1.10;;;1.50;99.90;;;;;;5072434;28;20754;-66
2022/01/26 19:00:28;;;;;;;0.10;0.10;;;1.50;99.90;;;;;;5070250;28;20040;-66
2022/01/26 19:02:54;;;;;;;0.38;0.38;;;1.50;99.90;;;;;;5071317;28;20036;-65
2022/01/26 19:05:20;;;;;;;0.20;0.20;;;1.50;99.90;;;;;;5071812;28;20032;-67
2022/01/26 19:07:47;;;;;;;1.65;1.55;;;1.40;99.90;;;;;;5077130;28;20111;-66
2022/01/26 19:10:15;;;;;;;0.75;0.75;;;1.40;99.90;;;;;;5052290;28;20417;-66
2022/01/26 19:12:43;;;;;;;1.55;1.45;;;1.50;99.90;;;;;;5071828;28;20036;-65
2022/01/26 19:15:15;;;;;;;0.82;0.82;;;1.50;99.90;;;;;;5072230;28;20041;-66
2022/01/26 19:25:41;;;;;;;0.10;0.10;;;1.50;99.90;;;;;;5070583;28;20030;-65
2022/01/26 19:28:23;;;;;;;0.13;0.13;;;1.50;99.90;;;;;;5071987;28;20047;-66
2022/01/26 19:52:30;;;;;;;1.13;1.05;;;1.60;99.90;;;;;;5051686;28;20532;-66
2022/01/26 19:55:04;;;;;;;4.38;1.73;;;1.50;99.90;;;;;;5067022;28;20033;-67
2022/01/26 19:57:30;;;;;;;0.60;0.60;;;1.60;99.90;;;;;;5051829;28;20033;-67
2022/01/26 19:59:56;;;;;;;0.52;0.52;;;1.60;99.90;;;;;;5051682;28;20103;-66